Time;durP1;ratioP1;P1;durP2;ratioP2;P2;SDS_P1;SDS_P2;PMS_P1;PMS_P2;Temp;Humidity;BMP_temperature;BMP_pressure;BME280_temperature;BME280_humidity;BME280_pressure;Samples;Min_cycle;Max_cycle;Signal;HPM_P1;HPM_P2
2021/03/05 05:42:48;;;;;;;10.32;8.93;;;7.80;51.00;;;;;;6218548;22;20637;-91
2021/03/05 05:45:14;;;;;;;12.65;10.55;;;7.70;50.20;;;;;;6194833;23;20169;-94
2021/03/05 05:47:42;;;;;;;10.52;9.43;;;7.80;50.80;;;;;;6195003;23;20210;-94
2021/03/05 05:53:35;;;;;;;14.32;12.68;;;8.00;50.00;;;;;;6219860;23;20201;-92
2021/03/05 05:56:53;;;;;;;12.85;11.60;;;7.70;50.70;;;;;;6192682;23;20150;-93
2021/03/05 05:59:19;;;;;;;13.32;11.68;;;7.90;50.80;;;;;;6193182;23;20162;-90
2021/03/05 06:01:47;;;;;;;11.43;10.27;;;8.30;51.40;;;;;;6194077;23;20212;-93
2021/03/05 06:07:36;;;;;;;14.30;11.98;;;7.90;50.50;;;;;;6220289;23;20144;-94
2021/03/05 06:10:02;;;;;;;13.18;11.73;;;8.50;49.90;;;;;;6193008;23;20212;-94
2021/03/05 06:16:19;;;;;;;12.30;10.93;;;8.20;49.50;;;;;;6219044;23;20531;-93
2021/03/05 06:18:46;;;;;;;13.10;11.73;;;8.40;49.90;;;;;;6193076;23;20151;-94
2021/03/05 06:21:12;;;;;;;12.88;11.02;;;8.20;49.20;;;;;;6192268;23;20577;-92
2021/03/05 06:27:01;;;;;;;14.02;11.20;;;8.40;49.10;;;;;;6218387;23;20209;-90
2021/03/05 06:29:48;;;;;;;15.10;13.55;;;8.50;48.60;;;;;;6191870;23;20179;-90
2021/03/05 06:32:16;;;;;;;14.35;11.93;;;8.40;48.90;;;;;;6190133;23;20640;-88
2021/03/05 06:34:53;;;;;;;13.45;12.05;;;7.90;48.10;;;;;;6191969;23;20583;-88
2021/03/05 06:37:25;;;;;;;12.52;11.23;;;8.30;48.40;;;;;;6193484;23;20173;-95
2021/03/05 06:40:03;;;;;;;13.60;12.15;;;8.40;49.20;;;;;;6195279;23;20487;-92
2021/03/05 06:42:29;;;;;;;12.23;10.40;;;8.50;47.90;;;;;;6192181;23;20248;-95
2021/03/05 06:48:23;;;;;;;12.00;9.70;;;8.20;47.50;;;;;;6222292;23;20258;-92
2021/03/05 06:54:15;;;;;;;14.15;12.65;;;8.10;48.70;;;;;;6219196;23;20469;-94
2021/03/05 07:00:23;;;;;;;13.43;12.02;;;8.20;48.50;;;;;;6221168;23;20166;-93
2021/03/05 07:02:50;;;;;;;13.63;11.93;;;8.00;48.90;;;;;;6194808;23;20146;-93
2021/03/05 07:18:41;;;;;;;12.80;10.25;;;8.70;49.20;;;;;;6134322;23;20207;-93
2021/03/05 07:24:30;;;;;;;14.60;13.00;;;8.40;48.40;;;;;;6128347;23;20397;-94
2021/03/05 07:30:21;;;;;;;11.43;10.23;;;8.10;47.40;;;;;;6131468;23;20225;-94
2021/03/05 07:50:21;;;;;;;12.23;10.30;;;8.70;46.10;;;;;;6253582;23;20195;-95
2021/03/05 07:59:41;;;;;;;13.43;10.93;;;8.70;46.30;;;;;;6249116;23;20442;-95
2021/03/05 08:03:03;;;;;;;13.35;10.88;;;9.20;46.00;;;;;;6229556;23;20153;-95
2021/03/05 08:13:06;;;;;;;10.93;9.23;;;8.30;46.10;;;;;;6163667;23;20190;-93
2021/03/05 08:15:32;;;;;;;13.85;10.45;;;8.60;47.00;;;;;;6138257;23;20167;-93
2021/03/05 08:22:15;;;;;;;12.93;9.52;;;8.40;47.90;;;;;;6165273;23;20175;-91
2021/03/05 08:24:42;;;;;;;14.18;10.30;;;8.30;47.80;;;;;;6137836;23;20576;-92
2021/03/05 08:27:17;;;;;;;15.23;10.68;;;8.30;47.50;;;;;;6138211;23;20617;-93
2021/03/05 08:30:13;;;;;;;11.95;10.65;;;8.90;47.70;;;;;;6140260;23;20179;-92
2021/03/05 08:32:47;;;;;;;15.10;11.40;;;8.40;48.10;;;;;;6142782;23;20156;-94
2021/03/05 08:35:15;;;;;;;13.73;12.15;;;7.60;47.20;;;;;;6138419;23;20152;-93
2021/03/05 08:38:05;;;;;;;12.38;10.10;;;7.70;46.90;;;;;;6137889;23;20568;-92
2021/03/05 08:40:46;;;;;;;13.60;11.05;;;7.90;48.30;;;;;;6161147;23;20155;-90
2021/03/05 08:43:18;;;;;;;14.05;10.85;;;7.80;47.90;;;;;;6203092;23;20216;-90
2021/03/05 08:45:55;;;;;;;12.57;10.38;;;8.30;48.20;;;;;;6219632;23;20628;-91
2021/03/05 08:48:39;;;;;;;14.02;9.73;;;8.30;46.60;;;;;;6221519;23;20243;-89
2021/03/05 08:51:09;;;;;;;14.60;12.00;;;8.30;46.40;;;;;;6221935;23;20200;-91
2021/03/05 08:54:05;;;;;;;14.80;9.90;;;8.40;46.60;;;;;;6222434;23;20155;-89
2021/03/05 08:56:53;;;;;;;14.20;11.20;;;8.30;47.90;;;;;;6219569;23;20158;-90
2021/03/05 08:59:19;;;;;;;14.63;11.15;;;7.90;46.20;;;;;;6223850;23;20151;-91
2021/03/05 09:01:47;;;;;;;14.83;11.03;;;8.30;46.80;;;;;;6223373;23;20601;-91
2021/03/05 09:04:20;;;;;;;18.02;11.10;;;8.80;47.20;;;;;;6222975;23;20294;-91
2021/03/05 09:06:55;;;;;;;13.98;11.45;;;8.40;47.30;;;;;;6222974;23;20154;-90
2021/03/05 09:09:30;;;;;;;12.73;10.20;;;8.60;46.70;;;;;;6222924;23;20177;-89
2021/03/05 09:12:16;;;;;;;15.48;11.90;;;8.10;46.00;;;;;;6220551;23;20157;-90
2021/03/05 09:14:44;;;;;;;13.88;11.95;;;8.50;45.80;;;;;;6224545;23;20378;-93
2021/03/05 09:17:11;;;;;;;14.85;12.15;;;8.90;47.20;;;;;;6225375;23;20150;-91
2021/03/05 09:20:00;;;;;;;15.90;10.43;;;8.30;46.00;;;;;;6224961;23;20146;-90
2021/03/05 09:22:26;;;;;;;12.20;10.90;;;8.40;47.30;;;;;;6222259;23;20154;-91
2021/03/05 09:25:09;;;;;;;13.70;10.07;;;8.80;47.00;;;;;;6225318;23;20154;-91
2021/03/05 09:27:40;;;;;;;13.30;10.15;;;8.70;45.90;;;;;;6225149;23;20151;-91
2021/03/05 09:30:26;;;;;;;13.02;11.27;;;9.00;46.10;;;;;;6223908;23;20520;-91
2021/03/05 09:32:57;;;;;;;13.18;9.63;;;9.10;44.90;;;;;;6223189;23;20154;-92
2021/03/05 09:35:34;;;;;;;11.70;9.77;;;9.60;44.30;;;;;;6222858;23;20181;-92
2021/03/05 09:38:00;;;;;;;11.07;8.80;;;9.40;43.80;;;;;;6223066;23;20176;-91
2021/03/05 09:40:28;;;;;;;14.13;11.30;;;9.50;43.80;;;;;;6223538;23;20146;-91
2021/03/05 09:43:01;;;;;;;12.98;11.27;;;9.50;42.60;;;;;;6218537;23;20237;-91
2021/03/05 09:45:49;;;;;;;12.93;11.07;;;9.50;43.00;;;;;;6218783;23;20336;-92
2021/03/05 09:48:31;;;;;;;13.50;11.57;;;9.60;43.00;;;;;;6217744;23;20186;-92
2021/03/05 09:51:02;;;;;;;11.70;9.95;;;9.70;43.80;;;;;;6219153;23;20174;-92
2021/03/05 09:56:44;;;;;;;13.95;12.00;;;9.40;43.80;;;;;;6217978;23;20529;-91
2021/03/05 10:00:04;;;;;;;16.10;11.55;;;9.20;44.60;;;;;;6218341;23;20157;-92
2021/03/05 10:02:36;;;;;;;13.77;11.60;;;9.40;44.10;;;;;;6219269;23;20382;-93
2021/03/05 10:05:04;;;;;;;12.85;10.30;;;9.80;42.20;;;;;;6222600;23;20154;-92
2021/03/05 10:07:29;;;;;;;13.00;10.52;;;9.60;42.30;;;;;;6218533;23;20233;-90
2021/03/05 10:10:10;;;;;;;13.70;11.27;;;9.90;41.80;;;;;;6217938;23;20209;-92
2021/03/05 10:12:36;;;;;;;11.95;9.77;;;9.70;41.80;;;;;;6218579;23;20143;-91
2021/03/05 10:15:18;;;;;;;11.90;10.07;;;9.80;42.00;;;;;;6218361;23;20165;-92
2021/03/05 10:17:44;;;;;;;11.48;10.00;;;9.70;41.80;;;;;;6219900;23;20161;-90
2021/03/05 10:20:29;;;;;;;11.13;9.37;;;9.40;40.80;;;;;;6219674;23;20143;-91
2021/03/05 10:22:55;;;;;;;11.30;9.57;;;9.50;41.30;;;;;;6222087;23;20146;-91
2021/03/05 10:32:43;;;;;;;11.85;9.57;;;9.90;41.60;;;;;;6224562;23;20453;-90
2021/03/05 10:35:11;;;;;;;10.50;9.40;;;9.90;40.30;;;;;;6220328;23;20475;-92
2021/03/05 10:41:29;;;;;;;12.02;9.10;;;9.70;40.30;;;;;;6223409;23;20620;-92
2021/03/05 10:43:54;;;;;;;10.82;9.73;;;9.70;39.90;;;;;;6219754;23;20388;-92
2021/03/05 10:46:20;;;;;;;13.63;8.87;;;9.90;40.10;;;;;;6219044;23;20899;-90
2021/03/05 10:48:48;;;;;;;11.83;9.60;;;10.00;39.10;;;;;;6218496;23;20209;-89
2021/03/05 10:51:13;;;;;;;9.45;7.93;;;10.10;39.10;;;;;;6217997;23;20150;-90
2021/03/05 10:53:40;;;;;;;10.27;9.13;;;9.80;40.10;;;;;;6218237;23;20679;-91
2021/03/05 10:56:06;;;;;;;13.32;10.75;;;10.00;39.50;;;;;;6219056;23;20197;-90
2021/03/05 10:58:38;;;;;;;11.83;9.93;;;9.40;39.60;;;;;;6218855;23;20158;-90
2021/03/05 11:01:42;;;;;;;12.27;8.57;;;9.30;41.00;;;;;;6217652;23;20378;-90
2021/03/05 11:04:08;;;;;;;11.65;9.38;;;9.40;41.80;;;;;;6216662;23;20154;-89
2021/03/05 11:06:34;;;;;;;12.77;9.30;;;9.60;41.10;;;;;;6217211;23;20481;-91
2021/03/05 11:12:30;;;;;;;11.13;9.25;;;9.60;41.40;;;;;;6218900;23;20138;-89
2021/03/05 11:14:56;;;;;;;14.00;11.10;;;9.00;40.80;;;;;;6217110;23;20173;-91
2021/03/05 11:17:50;;;;;;;16.73;9.80;;;9.50;41.30;;;;;;6217562;23;20229;-92
2021/03/05 11:20:16;;;;;;;12.82;10.20;;;9.40;41.20;;;;;;6224633;23;20158;-91
2021/03/05 11:29:26;;;;;;;12.77;9.90;;;9.10;42.50;;;;;;6218683;23;20671;-91
2021/03/05 11:35:20;;;;;;;12.65;9.48;;;8.90;42.40;;;;;;6218571;23;20134;-90
2021/03/05 11:37:45;;;;;;;16.60;11.45;;;9.00;42.60;;;;;;6218147;23;20185;-92
2021/03/05 11:40:22;;;;;;;13.60;11.70;;;9.20;43.00;;;;;;6218295;23;20522;-90
2021/03/05 11:42:47;;;;;;;14.55;9.98;;;8.60;43.10;;;;;;6217375;23;20150;-91
2021/03/05 11:45:14;;;;;;;13.43;11.13;;;8.70;43.00;;;;;;6216349;23;20260;-90
2021/03/05 11:47:40;;;;;;;14.23;10.50;;;8.80;42.70;;;;;;6222423;23;20545;-92
2021/03/05 11:50:06;;;;;;;13.20;9.20;;;8.90;42.60;;;;;;6248110;23;20165;-89
2021/03/05 11:52:55;;;;;;;11.93;10.70;;;9.10;42.40;;;;;;6221519;23;20157;-90
2021/03/05 11:55:21;;;;;;;14.50;10.07;;;9.10;41.80;;;;;;6221546;23;20240;-90
2021/03/05 11:58:37;;;;;;;9.43;8.53;;;9.50;41.90;;;;;;6222005;23;20508;-91
2021/03/05 12:01:44;;;;;;;10.65;9.05;;;9.40;41.60;;;;;;6225012;23;20392;-90
2021/03/05 12:04:09;;;;;;;13.75;10.55;;;9.90;40.40;;;;;;6223440;23;20157;-91
2021/03/05 12:06:35;;;;;;;13.63;10.17;;;9.80;40.10;;;;;;6223646;23;20160;-92
2021/03/05 12:12:23;;;;;;;13.30;10.40;;;10.00;39.90;;;;;;6253055;23;20141;-93
2021/03/05 12:18:11;;;;;;;13.60;9.52;;;9.70;40.80;;;;;;6249271;23;20739;-90
2021/03/05 12:20:38;;;;;;;11.32;9.77;;;9.70;39.20;;;;;;6223673;23;20472;-91
2021/03/05 12:23:35;;;;;;;12.13;10.23;;;9.70;40.00;;;;;;6221811;23;20146;-91
2021/03/05 12:26:01;;;;;;;12.02;10.63;;;9.80;40.50;;;;;;6221535;23;20146;-93
2021/03/05 12:28:26;;;;;;;15.57;12.20;;;9.80;39.80;;;;;;6221715;23;20201;-91
2021/03/05 12:33:43;;;;;;;11.43;9.57;;;9.30;40.20;;;;;;6188921;23;20220;-92
2021/03/05 12:36:10;;;;;;;12.30;9.80;;;9.50;40.60;;;;;;6163871;23;20155;-90
2021/03/05 12:38:36;;;;;;;11.02;8.95;;;9.60;39.70;;;;;;6187663;23;20246;-92
2021/03/05 12:47:58;;;;;;;10.27;8.10;;;9.00;41.00;;;;;;6188682;23;20138;-91
2021/03/05 12:50:24;;;;;;;12.60;9.77;;;9.10;40.50;;;;;;6189341;23;20135;-91
2021/03/05 12:53:09;;;;;;;8.63;7.80;;;9.10;39.90;;;;;;6163398;23;20567;-91
2021/03/05 12:55:35;;;;;;;10.73;8.93;;;8.90;41.40;;;;;;6163961;23;20162;-91
2021/03/05 12:58:18;;;;;;;10.13;8.20;;;9.00;41.30;;;;;;6164272;23;20159;-91
2021/03/05 13:00:44;;;;;;;11.60;10.32;;;9.30;40.80;;;;;;6165866;23;20158;-91
2021/03/05 13:03:34;;;;;;;10.03;9.03;;;8.80;40.50;;;;;;6165720;23;20152;-92
2021/03/05 13:05:59;;;;;;;13.73;9.73;;;8.90;40.90;;;;;;6190572;23;20214;-92
2021/03/05 13:08:31;;;;;;;12.33;9.50;;;9.00;40.90;;;;;;6165867;23;20178;-92
2021/03/05 13:10:57;;;;;;;11.13;9.75;;;8.90;41.40;;;;;;6164958;23;20147;-92
2021/03/05 13:13:42;;;;;;;12.37;9.67;;;9.00;40.30;;;;;;6165191;23;20475;-91
2021/03/05 13:16:07;;;;;;;13.07;11.50;;;9.10;41.40;;;;;;6165543;23;20605;-92
2021/03/05 13:18:33;;;;;;;9.90;8.40;;;8.60;40.00;;;;;;6165811;23;20151;-92
2021/03/05 13:20:59;;;;;;;12.40;9.60;;;8.90;40.80;;;;;;6164843;23;20238;-93
2021/03/05 13:23:25;;;;;;;10.57;7.90;;;9.20;39.60;;;;;;6165602;23;20155;-93
2021/03/05 13:25:53;;;;;;;20.90;11.20;;;8.90;39.90;;;;;;6167882;23;20154;-92
2021/03/05 13:28:19;;;;;;;11.77;8.82;;;9.20;39.90;;;;;;6166182;23;20414;-91
2021/03/05 13:30:52;;;;;;;11.23;9.50;;;9.40;39.60;;;;;;6165096;23;20478;-90
2021/03/05 13:33:18;;;;;;;12.95;9.77;;;9.40;39.70;;;;;;6164905;23;20425;-91
2021/03/05 13:36:28;;;;;;;9.80;8.80;;;9.40;38.90;;;;;;6165818;23;20210;-92
2021/03/05 13:39:00;;;;;;;11.40;9.40;;;9.50;39.30;;;;;;6164277;23;20155;-92
2021/03/05 13:41:54;;;;;;;13.05;8.55;;;9.50;38.70;;;;;;6192324;23;20159;-92
2021/03/05 13:44:20;;;;;;;10.27;8.55;;;9.40;39.20;;;;;;6167928;23;20487;-92
2021/03/05 13:46:55;;;;;;;12.53;10.87;;;9.60;38.20;;;;;;6166451;23;20155;-92
2021/03/05 13:49:20;;;;;;;11.15;8.57;;;9.50;38.20;;;;;;6165545;23;20413;-91
2021/03/05 13:52:30;;;;;;;9.30;8.20;;;9.90;38.30;;;;;;6179013;23;20159;-93
2021/03/05 13:58:18;;;;;;;11.95;9.02;;;9.70;38.60;;;;;;6203287;23;20147;-93
2021/03/05 14:00:58;;;;;;;11.57;8.82;;;9.60;38.50;;;;;;6181032;23;20131;-94
2021/03/05 14:03:24;;;;;;;21.10;11.55;;;9.60;38.50;;;;;;6172682;23;20147;-93
2021/03/05 14:06:03;;;;;;;12.13;9.80;;;9.70;37.80;;;;;;6190456;23;20155;-91
2021/03/05 14:08:28;;;;;;;11.40;8.57;;;9.70;38.00;;;;;;6165000;23;20178;-92
2021/03/05 14:11:24;;;;;;;11.80;8.80;;;9.70;37.40;;;;;;6165792;23;20685;-93
2021/03/05 14:13:50;;;;;;;11.68;8.90;;;9.70;37.70;;;;;;6165636;23;20379;-93
2021/03/05 14:19:38;;;;;;;12.07;8.48;;;9.70;37.30;;;;;;6194875;23;20142;-94
2021/03/05 14:22:28;;;;;;;9.00;7.50;;;9.80;37.00;;;;;;6166103;23;20151;-95
2021/03/05 14:24:53;;;;;;;12.55;9.20;;;9.90;37.20;;;;;;6164276;23;20151;-92
2021/03/05 14:27:21;;;;;;;12.07;8.33;;;10.30;35.20;;;;;;6163112;23;20147;-92
2021/03/05 14:29:47;;;;;;;14.73;9.25;;;10.20;34.80;;;;;;6164013;23;20237;-94
2021/03/05 14:32:13;;;;;;;11.87;8.50;;;10.30;34.70;;;;;;6165401;23;20194;-93
2021/03/05 14:35:21;;;;;;;12.90;8.90;;;10.30;35.00;;;;;;6164424;23;20177;-93
2021/03/05 14:37:47;;;;;;;12.20;9.30;;;10.40;34.10;;;;;;6164508;23;20378;-94
2021/03/05 14:41:00;;;;;;;11.63;9.40;;;10.30;33.80;;;;;;6162459;23;20462;-92
2021/03/05 14:43:26;;;;;;;9.80;8.23;;;10.30;34.70;;;;;;6163122;23;20163;-93
2021/03/05 14:45:51;;;;;;;12.80;8.63;;;10.30;34.40;;;;;;6163514;23;20246;-91
2021/03/05 14:51:39;;;;;;;16.88;9.48;;;10.70;34.60;;;;;;6189379;23;20593;-92
2021/03/05 14:54:27;;;;;;;14.77;9.20;;;10.50;33.50;;;;;;6163193;23;20151;-93
2021/03/05 14:56:53;;;;;;;9.70;8.45;;;10.80;35.00;;;;;;6162922;23;20147;-93
2021/03/05 14:59:20;;;;;;;11.20;9.30;;;10.40;33.80;;;;;;6163550;23;20147;-93
2021/03/05 15:01:45;;;;;;;14.18;11.00;;;10.70;33.20;;;;;;6164983;23;20151;-92
2021/03/05 15:04:11;;;;;;;13.80;9.73;;;11.00;33.90;;;;;;6163413;23;20634;-93
2021/03/05 15:06:37;;;;;;;14.50;10.90;;;10.70;33.90;;;;;;6164206;23;20151;-92
2021/03/05 15:12:31;;;;;;;11.90;9.85;;;10.30;33.60;;;;;;6190750;23;20138;-93
2021/03/05 15:14:57;;;;;;;12.43;10.45;;;10.30;33.60;;;;;;6169075;23;20154;-92
2021/03/05 15:17:29;;;;;;;15.10;9.90;;;10.30;33.70;;;;;;6170075;23;20143;-93
2021/03/05 15:19:55;;;;;;;10.43;9.32;;;10.20;34.80;;;;;;6162804;23;20389;-92
2021/03/05 15:22:23;;;;;;;13.93;11.37;;;10.20;34.70;;;;;;6162400;23;20178;-92
2021/03/05 15:24:48;;;;;;;13.02;11.15;;;10.20;35.20;;;;;;6162916;23;20147;-91
2021/03/05 15:30:37;;;;;;;15.63;11.02;;;10.00;35.30;;;;;;6198391;23;20202;-93
2021/03/05 15:33:06;;;;;;;12.05;8.90;;;10.30;35.20;;;;;;6192513;23;20517;-93
2021/03/05 15:35:32;;;;;;;16.95;11.23;;;10.10;34.90;;;;;;6166349;23;20161;-93
2021/03/05 15:38:26;;;;;;;14.70;10.77;;;10.10;34.80;;;;;;6166878;23;20147;-93
2021/03/05 15:40:51;;;;;;;20.83;15.13;;;10.60;34.50;;;;;;6167501;23;20206;-93
2021/03/05 15:43:17;;;;;;;32.83;29.30;;;10.40;34.30;;;;;;6166469;23;20167;-93
2021/03/05 15:45:43;;;;;;;14.32;12.88;;;10.20;34.00;;;;;;6166338;23;20234;-93
2021/03/05 15:48:09;;;;;;;10.97;9.90;;;10.10;34.80;;;;;;6166491;23;20163;-93
2021/03/05 15:50:35;;;;;;;11.30;10.07;;;10.10;35.30;;;;;;6167559;23;20461;-93
2021/03/05 15:53:01;;;;;;;20.67;18.57;;;10.20;35.50;;;;;;6168568;23;20155;-93
2021/03/05 15:55:27;;;;;;;15.00;11.83;;;9.80;37.10;;;;;;6168029;23;20772;-93
2021/03/05 15:57:53;;;;;;;14.70;11.97;;;9.50;38.00;;;;;;6170181;23;20151;-93
2021/03/05 16:00:19;;;;;;;15.90;13.03;;;9.40;39.90;;;;;;6173433;23;20235;-92
2021/03/05 16:02:45;;;;;;;16.17;10.68;;;9.00;40.60;;;;;;6180558;23;20186;-92
2021/03/05 16:05:19;;;;;;;12.63;10.40;;;8.90;40.50;;;;;;6180551;23;20148;-92
2021/03/05 16:07:52;;;;;;;11.32;10.15;;;9.30;40.60;;;;;;6205303;23;20362;-91
2021/03/05 16:10:31;;;;;;;13.80;10.65;;;9.80;40.80;;;;;;6178881;23;20178;-92
2021/03/05 16:12:58;;;;;;;17.83;14.02;;;9.50;40.40;;;;;;6180373;23;20159;-91
2021/03/05 16:16:03;;;;;;;22.13;14.80;;;9.60;40.20;;;;;;6180560;23;20147;-93
2021/03/05 16:18:30;;;;;;;13.68;10.23;;;9.50;40.60;;;;;;6177362;23;20158;-92
2021/03/05 16:20:58;;;;;;;14.70;11.02;;;9.20;40.50;;;;;;6177803;23;20154;-92
2021/03/05 16:23:24;;;;;;;26.95;20.02;;;8.90;41.10;;;;;;6169644;23;20147;-93
2021/03/05 16:25:52;;;;;;;12.10;9.83;;;8.10;41.20;;;;;;6169185;23;20155;-90
2021/03/05 16:28:18;;;;;;;9.15;7.85;;;8.30;41.40;;;;;;6170385;23;20151;-92
2021/03/05 16:30:58;;;;;;;11.47;8.80;;;8.70;40.90;;;;;;6171735;23;20481;-92
2021/03/05 16:33:36;;;;;;;7.05;6.38;;;8.00;42.00;;;;;;6171592;23;20194;-92
2021/03/05 16:36:03;;;;;;;13.65;11.98;;;7.70;43.30;;;;;;6172597;23;20158;-92
2021/03/05 16:38:43;;;;;;;8.50;7.00;;;7.40;44.20;;;;;;6172152;23;20153;-92
2021/03/05 16:41:08;;;;;;;6.82;5.40;;;7.50;45.40;;;;;;6170960;23;20174;-92
2021/03/05 16:43:46;;;;;;;7.67;6.73;;;7.60;46.20;;;;;;6171375;23;20151;-93
2021/03/05 16:46:12;;;;;;;7.78;7.05;;;7.60;46.20;;;;;;6170874;23;20154;-92
2021/03/05 16:49:07;;;;;;;6.70;6.10;;;7.70;46.40;;;;;;6171595;23;20210;-92
2021/03/05 16:51:33;;;;;;;6.93;6.22;;;7.50;46.40;;;;;;6172489;23;20155;-93
2021/03/05 16:54:01;;;;;;;10.20;9.20;;;7.80;46.60;;;;;;6168263;23;20155;-91
2021/03/05 16:56:27;;;;;;;7.47;6.60;;;7.10;46.30;;;;;;6166406;23;20378;-90
2021/03/05 16:59:06;;;;;;;6.80;6.10;;;7.40;46.50;;;;;;6166604;23;20173;-91
2021/03/05 17:01:31;;;;;;;6.15;5.18;;;8.10;47.30;;;;;;6168243;23;20386;-90
2021/03/05 17:04:10;;;;;;;7.47;6.00;;;7.10;46.50;;;;;;6171173;23;20148;-91
2021/03/05 17:06:36;;;;;;;6.13;5.53;;;7.70;47.40;;;;;;6175527;23;20378;-91
2021/03/05 17:09:16;;;;;;;6.60;5.77;;;7.30;46.40;;;;;;6177000;23;20183;-91
2021/03/05 17:11:44;;;;;;;7.68;5.05;;;7.40;47.00;;;;;;6174300;23;20422;-92
2021/03/05 17:14:11;;;;;;;6.55;5.18;;;7.30;47.10;;;;;;6167280;23;20174;-91
2021/03/05 17:16:37;;;;;;;9.45;7.30;;;7.50;47.90;;;;;;6169408;23;20202;-91
2021/03/05 17:19:05;;;;;;;8.17;6.93;;;7.00;47.70;;;;;;6167146;23;20395;-93
2021/03/05 17:21:30;;;;;;;9.18;7.35;;;7.20;48.70;;;;;;6167554;23;20159;-92
2021/03/05 17:23:57;;;;;;;6.80;5.97;;;7.20;48.80;;;;;;6165899;23;20427;-91
2021/03/05 17:26:23;;;;;;;10.40;7.57;;;6.60;48.10;;;;;;6165858;23;20147;-90
2021/03/05 17:28:49;;;;;;;7.83;6.90;;;7.10;48.70;;;;;;6164468;23;20190;-90
2021/03/05 17:31:15;;;;;;;13.27;11.50;;;7.00;48.80;;;;;;6165151;23;20620;-90
2021/03/05 17:33:40;;;;;;;11.70;8.67;;;7.40;48.50;;;;;;6163905;23;20205;-90
2021/03/05 17:36:08;;;;;;;15.17;8.77;;;7.60;48.90;;;;;;6163984;23;20181;-89
2021/03/05 17:38:34;;;;;;;11.25;9.00;;;7.70;48.20;;;;;;6163363;23;20831;-89
2021/03/05 17:41:06;;;;;;;11.37;9.70;;;7.50;47.40;;;;;;6163406;23;20422;-90
2021/03/05 17:43:32;;;;;;;8.50;6.93;;;7.30;46.60;;;;;;6164308;23;20161;-90
2021/03/05 17:46:32;;;;;;;6.40;5.80;;;7.90;46.80;;;;;;6190057;23;20155;-90
2021/03/05 17:48:59;;;;;;;10.48;9.38;;;7.60;47.20;;;;;;6189904;23;20436;-89
2021/03/05 17:51:48;;;;;;;7.68;6.45;;;7.30;46.60;;;;;;6164958;23;20391;-90
2021/03/05 17:54:13;;;;;;;8.23;5.43;;;7.80;46.50;;;;;;6164461;23;20151;-89
2021/03/05 17:56:40;;;;;;;6.40;5.13;;;7.80;46.20;;;;;;6163762;23;20550;-89
2021/03/05 17:59:06;;;;;;;10.13;8.02;;;7.60;46.40;;;;;;6163780;23;20578;-89
2021/03/05 18:01:39;;;;;;;7.57;6.77;;;7.50;46.60;;;;;;6163383;23;20161;-89
2021/03/05 18:04:05;;;;;;;15.77;11.23;;;7.70;46.20;;;;;;6163620;23;20155;-88
2021/03/05 18:06:47;;;;;;;9.63;8.53;;;7.70;46.80;;;;;;6162854;23;20153;-87
2021/03/05 18:09:13;;;;;;;8.87;7.50;;;7.00;46.30;;;;;;6163011;23;20807;-88
2021/03/05 18:11:40;;;;;;;11.10;9.33;;;8.00;47.00;;;;;;6164866;23;20457;-88
2021/03/05 18:14:05;;;;;;;6.95;5.82;;;7.10;45.80;;;;;;6163658;23;20222;-89
2021/03/05 18:16:38;;;;;;;10.10;8.80;;;7.30;46.80;;;;;;6163418;23;20427;-89
2021/03/05 18:19:04;;;;;;;7.45;6.32;;;7.70;47.50;;;;;;6164026;23;20383;-89
2021/03/05 18:21:36;;;;;;;9.70;7.93;;;7.50;46.60;;;;;;6164713;23;20166;-89
2021/03/05 18:24:04;;;;;;;14.30;11.82;;;6.80;45.90;;;;;;6164679;23;20217;-89
2021/03/05 18:26:31;;;;;;;12.70;9.40;;;7.40;46.20;;;;;;6189277;23;20194;-89
2021/03/05 18:28:56;;;;;;;13.68;10.30;;;7.20;46.00;;;;;;6163204;23;20174;-89
2021/03/05 18:31:22;;;;;;;12.57;9.90;;;7.40;46.00;;;;;;6164267;23;20143;-89
2021/03/05 18:34:23;;;;;;;10.40;8.00;;;7.40;45.80;;;;;;6164030;23;20214;-89
2021/03/05 18:36:49;;;;;;;11.63;8.73;;;7.20;46.10;;;;;;6187988;23;20370;-90
2021/03/05 18:39:46;;;;;;;10.63;8.37;;;7.00;45.10;;;;;;6164291;23;20159;-89
2021/03/05 18:42:12;;;;;;;11.73;8.90;;;7.40;45.60;;;;;;6164141;23;20150;-89
2021/03/05 18:44:37;;;;;;;12.20;8.17;;;7.10;44.90;;;;;;6163881;23;20242;-89
2021/03/05 18:47:03;;;;;;;18.27;10.70;;;7.70;45.80;;;;;;6164074;23;20174;-89
2021/03/05 18:49:29;;;;;;;11.67;8.17;;;6.90;45.70;;;;;;6163470;23;20183;-89
2021/03/05 18:51:54;;;;;;;9.57;6.60;;;6.50;45.20;;;;;;6162655;23;20185;-91
2021/03/05 18:54:29;;;;;;;10.37;7.90;;;7.30;45.70;;;;;;6161864;23;20178;-90
2021/03/05 18:56:55;;;;;;;9.15;6.30;;;7.10;45.30;;;;;;6167371;23;20204;-88
2021/03/05 18:59:39;;;;;;;9.83;6.40;;;6.80;45.60;;;;;;6163399;23;20516;-91
2021/03/05 19:02:05;;;;;;;9.25;7.35;;;7.00;45.70;;;;;;6162111;23;20166;-90
2021/03/05 19:04:36;;;;;;;14.27;8.83;;;6.90;45.90;;;;;;6162797;23;20182;-89
2021/03/05 19:07:01;;;;;;;9.30;7.55;;;6.50;46.10;;;;;;6164503;23;20444;-90
2021/03/05 19:09:55;;;;;;;10.57;8.07;;;6.70;46.10;;;;;;6163711;23;20610;-90
2021/03/05 19:12:21;;;;;;;9.07;7.65;;;6.90;45.60;;;;;;6188039;23;20230;-90
2021/03/05 19:15:10;;;;;;;10.07;7.10;;;6.90;45.70;;;;;;6162937;23;20151;-89
2021/03/05 19:17:40;;;;;;;9.13;6.80;;;6.60;46.00;;;;;;6187891;23;20151;-88
2021/03/05 19:20:11;;;;;;;9.13;7.60;;;6.50;46.10;;;;;;6187791;23;20154;-91
2021/03/05 19:22:38;;;;;;;11.98;8.57;;;6.90;46.50;;;;;;6188533;23;20151;-88
2021/03/05 19:25:14;;;;;;;8.48;6.78;;;7.20;45.70;;;;;;6190152;23;20158;-89
2021/03/05 19:27:41;;;;;;;12.25;9.50;;;6.90;46.90;;;;;;6189218;23;20146;-90
2021/03/05 19:30:23;;;;;;;12.50;9.55;;;6.50;46.20;;;;;;6168815;23;20175;-89
2021/03/05 19:32:48;;;;;;;10.45;8.93;;;6.80;46.60;;;;;;6191061;23;20151;-90
2021/03/05 19:35:28;;;;;;;9.70;8.70;;;6.60;46.10;;;;;;6165045;23;20275;-89
2021/03/05 19:37:54;;;;;;;12.95;9.00;;;6.80;46.10;;;;;;6164789;23;20143;-89
2021/03/05 19:40:25;;;;;;;8.83;7.23;;;6.30;45.40;;;;;;6164671;23;20161;-89
2021/03/05 19:42:51;;;;;;;10.75;8.77;;;6.90;46.50;;;;;;6164880;23;20171;-90
2021/03/05 19:45:18;;;;;;;12.00;9.57;;;6.50;46.00;;;;;;6165269;23;20157;-89
2021/03/05 19:47:44;;;;;;;11.70;9.63;;;6.70;46.00;;;;;;6164656;23;20163;-89
2021/03/05 19:50:19;;;;;;;10.17;8.57;;;6.50;46.30;;;;;;6166734;23;20183;-89
2021/03/05 19:52:45;;;;;;;14.05;8.98;;;6.50;47.20;;;;;;6163950;23;20378;-88
2021/03/05 19:55:13;;;;;;;10.80;7.97;;;6.60;47.50;;;;;;6163655;23;20509;-87
2021/03/05 19:57:38;;;;;;;13.00;10.15;;;6.50;47.70;;;;;;6164894;23;20174;-89
2021/03/05 20:00:26;;;;;;;10.30;8.37;;;6.10;46.70;;;;;;6165432;23;20151;-88
2021/03/05 20:02:52;;;;;;;16.98;12.05;;;6.30;46.80;;;;;;6164506;23;20163;-89
2021/03/05 20:05:37;;;;;;;14.52;10.25;;;6.20;46.40;;;;;;6164955;23;20154;-91
2021/03/05 20:08:03;;;;;;;15.90;10.23;;;6.30;46.90;;;;;;6163784;23;20700;-89
2021/03/05 20:10:30;;;;;;;22.05;15.00;;;6.10;47.00;;;;;;6164440;23;20315;-89
2021/03/05 20:12:56;;;;;;;20.27;12.50;;;6.30;46.70;;;;;;6164518;23;20174;-89
2021/03/05 20:19:04;;;;;;;13.77;10.38;;;6.20;47.20;;;;;;6189848;23;20346;-90
2021/03/05 20:21:30;;;;;;;19.58;13.70;;;6.00;46.90;;;;;;6164328;23;20162;-89
2021/03/05 20:24:33;;;;;;;20.17;12.80;;;5.80;46.70;;;;;;6163246;23;20190;-90
2021/03/05 20:26:59;;;;;;;13.80;10.23;;;5.90;47.50;;;;;;6163743;23;20154;-85
2021/03/05 20:29:28;;;;;;;16.87;10.30;;;5.80;46.50;;;;;;6160507;23;20502;-83
2021/03/05 20:31:54;;;;;;;11.52;8.90;;;5.70;46.40;;;;;;6186479;23;20567;-84
2021/03/05 20:34:20;;;;;;;11.50;9.60;;;5.20;45.80;;;;;;6161887;23;20461;-90
2021/03/05 20:37:10;;;;;;;9.75;8.50;;;5.80;46.10;;;;;;6163779;23;20195;-92
2021/03/05 20:39:36;;;;;;;13.90;10.63;;;5.90;46.70;;;;;;6161832;23;20383;-91
2021/03/05 20:42:04;;;;;;;10.75;8.85;;;5.30;46.50;;;;;;6163009;23;20395;-91
2021/03/05 20:44:51;;;;;;;11.40;9.10;;;5.50;46.30;;;;;;6164708;23;20151;-91
2021/03/05 20:47:16;;;;;;;10.13;9.02;;;5.50;46.10;;;;;;6161947;23;20182;-89
2021/03/05 20:49:51;;;;;;;13.60;9.97;;;5.50;45.60;;;;;;6162947;23;20183;-89
2021/03/05 20:52:16;;;;;;;9.43;8.20;;;5.80;45.10;;;;;;6162133;23;20147;-88
2021/03/05 20:54:55;;;;;;;11.47;8.60;;;5.30;44.70;;;;;;6162187;23;20154;-88
2021/03/05 20:57:20;;;;;;;11.13;8.50;;;5.80;45.00;;;;;;6162060;23;20157;-89
2021/03/05 21:03:14;;;;;;;12.75;9.07;;;6.30;44.50;;;;;;6189008;23;20193;-88
2021/03/05 21:05:40;;;;;;;13.07;9.93;;;6.00;43.50;;;;;;6162723;23;20383;-89
2021/03/05 21:08:19;;;;;;;12.73;8.60;;;6.20;43.80;;;;;;6163590;23;20143;-90
2021/03/05 21:10:45;;;;;;;12.02;9.18;;;6.00;43.60;;;;;;6162638;23;20166;-88
2021/03/05 21:13:34;;;;;;;11.73;8.10;;;6.00;43.60;;;;;;6162851;23;20170;-90
2021/03/05 21:15:59;;;;;;;13.60;11.40;;;5.90;43.80;;;;;;6163433;23;20174;-89
2021/03/05 21:21:55;;;;;;;13.20;11.25;;;5.80;43.30;;;;;;6190471;23;20154;-89
2021/03/05 21:24:21;;;;;;;13.70;9.05;;;6.00;43.10;;;;;;6164208;23;20151;-89